Map

Track Data

SID SEASON NUMBER BASIN SUBBASIN NAME ISO_TIME NATURE LAT LON WMO_WIND WMO_PRES WMO_AGENCY TRACK_TYPE DIST2LAND LANDFALL IFLAG USA_AGENCY USA_ATCF_ID USA_LAT USA_LON USA_RECORD USA_STATUS USA_WIND USA_PRES USA_SSHS USA_R34_NE USA_R34_SE USA_R34_SW USA_R34_NW USA_R50_NE USA_R50_SE USA_R50_SW USA_R50_NW USA_R64_NE USA_R64_SE USA_R64_SW USA_R64_NW USA_POCI USA_ROCI USA_RMW USA_EYE TOKYO_LAT TOKYO_LON TOKYO_GRADE TOKYO_WIND TOKYO_PRES TOKYO_R50_DIR TOKYO_R50_LONG TOKYO_R50_SHORT TOKYO_R30_DIR TOKYO_R30_LONG TOKYO_R30_SHORT TOKYO_LAND CMA_LAT CMA_LON CMA_CAT CMA_WIND CMA_PRES HKO_LAT HKO_LON HKO_CAT HKO_WIND HKO_PRES NEWDELHI_LAT NEWDELHI_LON NEWDELHI_GRADE NEWDELHI_WIND NEWDELHI_PRES NEWDELHI_CI NEWDELHI_DP NEWDELHI_POCI REUNION_LAT REUNION_LON REUNION_TYPE REUNION_WIND REUNION_PRES REUNION_TNUM REUNION_CI REUNION_RMW REUNION_R34_NE REUNION_R34_SE REUNION_R34_SW REUNION_R34_NW REUNION_R50_NE REUNION_R50_SE REUNION_R50_SW REUNION_R50_NW REUNION_R64_NE REUNION_R64_SE REUNION_R64_SW REUNION_R64_NW BOM_LAT BOM_LON BOM_TYPE BOM_WIND BOM_PRES BOM_TNUM BOM_CI BOM_RMW BOM_R34_NE BOM_R34_SE BOM_R34_SW BOM_R34_NW BOM_R50_NE BOM_R50_SE BOM_R50_SW BOM_R50_NW BOM_R64_NE BOM_R64_SE BOM_R64_SW BOM_R64_NW BOM_ROCI BOM_POCI BOM_EYE BOM_POS_METHOD BOM_PRES_METHOD NADI_LAT NADI_LON NADI_CAT NADI_WIND NADI_PRES WELLINGTON_LAT WELLINGTON_LON WELLINGTON_WIND WELLINGTON_PRES DS824_LAT DS824_LON DS824_STAGE DS824_WIND DS824_PRES TD9636_LAT TD9636_LON TD9636_STAGE TD9636_WIND TD9636_PRES TD9635_LAT TD9635_LON TD9635_WIND TD9635_PRES TD9635_ROCI NEUMANN_LAT NEUMANN_LON NEUMANN_CLASS NEUMANN_WIND NEUMANN_PRES MLC_LAT MLC_LON MLC_CLASS MLC_WIND MLC_PRES USA_GUST BOM_GUST BOM_GUST_PER REUNION_GUST REUNION_GUST_PER USA_SEAHGT USA_SEARAD_NE USA_SEARAD_SE USA_SEARAD_SW USA_SEARAD_NW STORM_SPEED STORM_DIR
2007362S13131 2008 93 SI WA HELEN 2007-12-28 00:00:00 NR -13.2000 130.900 1003 bom main 0 0 ______O_______ -1 -13.2000 130.900 1003 17 111
2007362S13131 2008 93 SI WA HELEN 2007-12-28 03:00:00 NR -13.5000 131.700 1001 bom main 0 0 ______O_______ -1 -13.5000 131.700 1001 12 119
2007362S13131 2008 93 SI WA HELEN 2007-12-28 06:00:00 NR -13.8000 132.000 998 bom main 0 0 ______O_______ -1 -13.8000 132.000 998 8 97
2007362S13131 2008 93 SI WA HELEN 2007-12-28 09:00:00 NR -13.6000 132.500 998 bom main 0 0 ______O_______ -1 -13.6000 132.500 998 9 63
2007362S13131 2008 93 SI WA HELEN 2007-12-28 12:00:00 NR -13.4000 132.800 1001 bom main 0 0 ______O_______ -1 -13.4000 132.800 1001 5 36
2007362S13131 2008 93 SI WA HELEN 2007-12-28 15:00:00 NR -13.2000 132.800 1000 bom main 0 0 ______O_______ -1 -13.2000 132.800 1000 3 0
2007362S13131 2008 93 SI WA HELEN 2007-12-28 18:00:00 NR -13.1000 132.800 998 bom main 0 0 ______O_______ -1 -13.1000 132.800 998 1 0
2007362S13131 2008 93 SI WA HELEN 2007-12-28 21:00:00 NR -13.1000 132.800 998 bom main 0 0 ______O_______ -1 -13.1000 132.800 998 1 0
2007362S13131 2008 93 SI WA HELEN 2007-12-29 00:00:00 NR -13.0000 132.800 1000 bom main 0 0 ______O_______ -1 -13.0000 132.800 1000 3 343
2007362S13131 2008 93 SI WA HELEN 2007-12-29 03:00:00 NR -12.8000 132.700 999 bom main 0 0 ______O_______ -1 -12.8000 132.700 999 3 343
2007362S13131 2008 93 SI WA HELEN 2007-12-29 06:00:00 NR -12.7000 132.700 997 bom main 0 0 ______O_______ -1 -12.7000 132.700 997 2 19
2007362S13131 2008 93 SI WA HELEN 2007-12-29 09:00:00 NR -12.6500 132.750 997 bom main 0 0 ______O_______ -1 -12.6500 132.750 997 1 43
2007362S13131 2008 93 SI WA HELEN 2007-12-29 12:00:00 NR -12.6000 132.800 1000 bom main 0 0 ______O_______ -1 -12.6000 132.800 1000 2 108
2007362S13131 2008 93 SI WA HELEN 2007-12-29 15:00:00 NR -12.7000 132.900 999 bom main 0 0 ______O_______ -1 -12.7000 132.900 999 2 117
2007362S13131 2008 93 SI WA HELEN 2007-12-29 18:00:00 NR -12.7000 133.000 997 bom main 0 0 ______O_______ -1 -12.7000 133.000 997 2 117
2007362S13131 2008 93 SI WA HELEN 2007-12-29 21:00:00 NR -12.8000 133.100 996 bom main 0 0 ______O_______ -1 -12.8000 133.100 996 4 147
2007362S13131 2008 93 SI WA HELEN 2007-12-30 00:00:00 NR -13.0000 133.200 999 bom main 0 0 ______O_______ -1 -13.0000 133.200 999 5 144
2007362S13131 2008 93 SI WA HELEN 2007-12-30 03:00:00 NR -13.2000 133.400 998 bom main 0 0 ______O_______ -1 -13.2000 133.400 998 4 136
2007362S13131 2008 93 SI WA HELEN 2007-12-30 06:00:00 NR -13.3000 133.500 997 bom main 0 0 ______O_______ -1 -13.3000 133.500 997 4 124
2007362S13131 2008 93 SI WA HELEN 2007-12-30 09:00:00 NR -13.4000 133.700 997 bom main 0 0 ______O_______ -1 -13.4000 133.700 997 6 109
2007362S13131 2008 93 SI WA HELEN 2007-12-30 12:00:00 NR -13.5000 134.100 997 bom main 0 0 ______O_______ -1 -13.5000 134.100 997 7 106
2007362S13131 2008 93 SI WA HELEN 2007-12-30 15:00:00 NR -13.6000 134.400 997 bom main 0 0 ______O_______ -1 -13.6000 134.400 997 6 141
2007362S13131 2008 93 SI WA HELEN 2007-12-30 18:00:00 NR -13.9600 134.480 995 bom main 0 0 O_____O_______ jtwc_sh SH102008 -14.6000 134.400 DB 25 1004 -3 1011 200 45 -13.8000 134.500 995 8 166
2007362S13131 2008 93 SI WA HELEN 2007-12-30 21:00:00 NR -14.3842 134.605 996 bom main 0 0 P_____O_______ SH102008 -14.7526 134.615 DB 25 1004 -3 1005 200 45 -14.2000 134.600 996 8 162
2007362S13131 2008 93 SI WA HELEN 2007-12-31 00:00:00 NR -14.7286 134.743 997 bom main 0 0 O_____O_______ jtwc_sh SH102008 -14.9000 134.800 DB 25 1004 -3 1000 200 45 -14.6000 134.700 997 7 153
2007362S13131 2008 93 SI WA HELEN 2007-12-31 03:00:00 NR -14.9712 134.915 995 bom main 0 0 P_____O_______ SH102008 -15.0425 134.930 DB 25 1004 -3 1001 200 45 -14.9000 134.900 995 5 150
2007362S13131 2008 93 SP EA HELEN 2007-12-31 06:00:00 NR -15.1500 135.000 993 bom main 0 0 O_____O_______ jtwc_sh SH102008 -15.2000 135.000 DB 25 1004 -3 1002 200 45 -15.1000 135.000 993 4 168
2007362S13131 2008 93 SP EA HELEN 2007-12-31 09:00:00 NR -15.4000 135.019 993 bom main 0 0 P_____O_______ SH102008 -15.4000 135.037 DB 25 1004 -3 1002 202 45 -15.4000 135.000 993 5 184
2007362S13131 2008 93 SI WA HELEN 2007-12-31 12:00:00 NR -15.6000 134.950 995 bom main 0 0 O_____O_______ jtwc_sh SH102008 -15.6000 135.000 DB 25 1004 -3 1002 205 45 -15.6000 134.900 995 4 207
2007362S13131 2008 93 SI WA HELEN 2007-12-31 15:00:00 NR -15.7363 134.840 997 bom main 0 0 P_____O_______ SH102008 -15.7725 134.880 DB 25 1004 -3 1004 205 45 -15.7000 134.800 997 4 229
2007362S13131 2008 93 SI WA HELEN 2007-12-31 18:00:00 NR -15.8500 134.650 995 bom main 0 0 O_____O_______ jtwc_sh SH102008 -15.9000 134.700 DB 25 1004 -3 1006 205 45 -15.8000 134.600 995 4 238
2007362S13131 2008 93 SI WA HELEN 2007-12-31 21:00:00 NR -15.9362 134.507 995 bom main 0 0 P_____O_______ SH102008 -15.9725 134.515 DB 22 1005 -3 1006 192 45 -15.9000 134.500 995 4 253
2007362S13131 2008 93 SI WA HELEN 2008-01-01 00:00:00 NR -15.9500 134.300 996 bom main 0 0 O_____O_______ jtwc_sh SH102008 -16.0000 134.300 DB 20 1007 -3 1006 180 45 -15.9000 134.300 996 4 273
2007362S13131 2008 93 SI WA HELEN 2008-01-01 03:00:00 NR -15.9149 134.044 995 bom main 0 0 P_____O_______ SH102008 -16.0299 134.088 DB 20 1007 -3 -15.8000 134.000 995 6 275
2007362S13131 2008 93 SI WA HELEN 2008-01-01 06:00:00 NR -15.9000 133.700 993 bom main 0 0 O_____O_______ jtwc_sh SH102008 -16.0000 133.800 DB 20 1007 -3 -15.8000 133.600 993 8 279
2007362S13131 2008 93 SI WA HELEN 2008-01-01 09:00:00 NR -15.7900 133.244 994 bom main 0 0 P_____O_______ SH102008 -15.8800 133.387 DB 20 1007 -3 -15.7000 133.100 994 10 281
2007362S13131 2008 93 SI WA HELEN 2008-01-01 12:00:00 NR -15.7000 132.650 995 bom main 0 0 O_____O_______ jtwc_sh SH102008 -15.7000 132.900 DB 20 1007 -3 -15.7000 132.400 995 13 279
2007362S13131 2008 93 SI WA HELEN 2008-01-01 15:00:00 NR -15.6037 131.954 995 bom main 0 0 P_____O_______ SH102008 -15.5074 132.408 DB 20 1007 -3 -15.7000 131.500 995 12 282
2007362S13131 2008 93 SI WA HELEN 2008-01-01 18:00:00 NR -15.4500 131.450 995 bom main 0 0 O_____O_______ jtwc_sh SH102008 -15.3000 131.900 DB 20 1007 -3 -15.6000 131.000 995 10 291
2007362S13131 2008 93 SI WA HELEN 2008-01-01 21:00:00 NR -15.2537 130.996 995 bom main 0 0 P_____O_______ SH102008 -15.1074 131.393 DB 20 1001 -3 -15.4000 130.600 995 11 302
2007362S13131 2008 93 SI WA HELEN 2008-01-02 00:00:00 NR -14.8500 130.450 998 bom main 0 0 O_____O_______ jtwc_sh SH102008 -14.9000 130.900 DB 20 996 -3 -14.8000 130.000 998 10 304
2007362S13131 2008 93 SI WA HELEN 2008-01-02 03:00:00 NR -14.6712 130.117 996 bom main 0 0 P_____O_______ SH102008 -14.6424 130.435 DB 20 996 -3 -14.7000 129.800 996 7 305
2007362S13131 2008 93 SI WA HELEN 2008-01-02 06:00:00 NR -14.4500 129.850 995 bom main 0 0 O_____O_______ jtwc_sh SH102008 -14.4000 130.000 DB 20 996 -3 1001 180 45 -14.5000 129.700 995 6 306
2007362S13131 2008 93 SI WA HELEN 2008-01-02 09:00:00 NR -14.3062 129.589 994 bom main 0 0 P_____O_______ SH102008 -14.2125 129.578 DB 22 996 -3 1001 165 45 -14.4000 129.600 994 6 299
2007362S13131 2008 93 SI WA HELEN 2008-01-02 12:00:00 NR -14.1500 129.300 997 bom main 24 15 O_____O_______ jtwc_sh SH102008 -14.1000 129.200 DB 25 996 -3 1001 150 45 -14.2000 129.400 997 6 297
2007362S13131 2008 93 SI WA HELEN 2008-01-02 15:00:00 NR -14.0350 129.043 997 bom main 54 54 P_____O_______ SH102008 -14.0699 128.885 DB 25 1000 -3 1003 135 40 -14.0000 129.200 997 5 282
2007362S13131 2008 93 SI WA HELEN 2008-01-02 18:00:00 TS -14.0500 128.800 995 bom main 72 68 O_____O_______ jtwc_sh SH102008 -14.1000 128.600 TD 25 1004 -1 1005 120 35 -14.0000 129.000 995 5 265
2007362S13131 2008 93 SI WA HELEN 2008-01-02 21:00:00 TS -14.0750 128.531 995 bom main 74 62 P_____O_______ SH102008 -14.1501 128.263 TD 25 1004 -1 1003 120 37 -14.0000 128.800 995 5 258
2007362S13131 2008 93 SI WA HELEN 2008-01-03 00:00:00 TS -14.1500 128.300 995 bom main 62 39 O_____O_______ jtwc_sh SH102008 -14.2000 128.000 TD 25 1004 -1 1001 120 40 -14.1000 128.600 995 4 259
2007362S13131 2008 93 SI WA HELEN 2008-01-03 03:00:00 TS -14.1537 128.106 995 bom main 39 21 P_____O_______ SH102008 -14.2074 127.912 TD 27 1002 -1 -14.1000 128.300 995 4 270
2007362S13131 2008 93 SI WA HELEN 2008-01-03 06:00:00 TS -14.1500 127.900 993 bom main 24 10 O_____O_______ jtwc_sh SH102008 -14.2000 127.900 TD 30 1000 -1 -14.1000 127.900 993 3 269
2007362S13131 2008 93 SI WA HELEN 2008-01-03 09:00:00 TS -14.1575 127.825 991 bom main 10 10 P_____O_______ SH102008 -14.2150 127.850 TD 32 998 -1 -14.1000 127.800 991 1 270
2007362S13131 2008 93 SI WA HELEN 2008-01-03 12:00:00 TS -14.1500 127.775 992 bom main 15 11 O_____O_______ jtwc_sh SH102008 -14.2000 127.800 TS 35 996 0 1002 120 40 -14.1000 127.750 992 1 287
2007362S13131 2008 93 SI WA HELEN 2008-01-03 15:00:00 TS -14.1225 127.706 990 bom main 11 11 P_____O_______ SH102008 -14.1450 127.712 TS 35 995 0 1001 125 40 -14.1000 127.700 990 2 322
2007362S13131 2008 93 SI WA HELEN 2008-01-03 18:00:00 TS -14.0000 127.650 990 bom main 22 15 O_____O_______ jtwc_sh SH102008 -14.0000 127.700 TS 35 994 0 1001 130 40 -14.0000 127.600 990 4 0
2007362S13131 2008 93 SI WA HELEN 2008-01-03 21:00:00 TS -13.7000 127.716 990 bom main 46 46 P_____O_______ SH102008 -13.6999 127.833 TS 35 995 0 1001 130 40 -13.7000 127.600 990 7 36
2007362S13131 2008 93 SI WA HELEN 2008-01-04 00:00:00 TS -13.4000 128.100 35 985 bom main 99 99 O_____O_______ jtwc_sh SH102008 -13.4000 128.100 TS 35 996 0 1001 130 40 -13.4000 128.100 35 985 3.00000 3.00000 15 59 50 50 59 119 1002 49 49 9 62
2007362S13131 2008 93 SI WA HELEN 2008-01-04 03:00:00 TS -13.2775 128.531 40 983 bom main 132 99 P_____O_______ SH102008 -13.2550 128.462 TS 40 990 0 1001 145 35 -13.3000 128.600 40 983 3.00000 3.00000 15 59 50 50 59 130 1002 55 55 8 79
2007362S13131 2008 93 SI WA HELEN 2008-01-04 06:00:00 TS -13.2500 128.900 45 981 bom main 103 63 O_____O_______ jtwc_sh SH102008 -13.2000 128.900 TS 45 985 0 90 55 70 60 1002 160 30 -13.3000 128.900 45 981 3.00000 3.00000 12 59 50 50 59 70 998 55 60 60 8 84
2007362S13131 2008 93 SI WA HELEN 2008-01-04 09:00:00 TS -13.1924 129.364 50 975 bom main 54 32 P_____O_______ SH102008 -13.1849 129.327 TS 47 985 0 90 55 65 75 1001 165 30 -13.2000 129.400 50 975 3.50000 3.50000 16 90 39 90 99 70 998 69 69 9 84
2007362S13131 2008 93 SI WA HELEN 2008-01-04 12:00:00 TS -13.1500 129.850 50 975 bom main 21 0 O_____O_______ jtwc_sh SH102008 -13.2000 129.800 TS 50 985 0 90 55 60 90 30 30 30 30 1001 170 30 -13.1000 129.900 50 975 3.50000 3.50000 19 90 39 39 99 39 24 24 39 139 1002 69 69 10 90
2007362S13131 2008 93 SI WA HELEN 2008-01-04 15:00:00 TS -13.1962 130.364 50 978 bom main 0 0 P_____O_______ SH102008 -13.1924 130.328 TS 47 987 0 87 60 62 85 1001 167 30 -13.2000 130.400 50 978 3.00000 3.50000 19 59 50 50 99 39 24 24 39 139 1006 69 69 11 95
2007362S13131 2008 93 SI WA HELEN 2008-01-04 18:00:00 TS -13.2500 130.950 45 980 bom main 0 0 O_____O_______ jtwc_sh SH102008 -13.2000 130.900 TS 45 989 0 85 65 65 80 1001 165 30 -13.3000 131.000 45 980 3.00000 3.00000 19 59 50 50 90 159 1002 60 60 12 96
2007362S13131 2008 93 SI WA HELEN 2008-01-04 21:00:00 TS -13.3212 131.542 35 985 bom main 0 0 P_____O_______ SH102008 -13.2424 131.485 TS 42 991 0 82 62 62 77 1001 165 32 -13.4000 131.600 35 985 2.50000 3.00000 30 150 1002 49 49 12 95
2007362S13131 2008 93 SI WA HELEN 2008-01-05 00:00:00 TS -13.3500 132.150 990 bom main 0 0 O_____O_______ jtwc_sh SH102008 -13.3000 132.100 TS 40 993 0 80 60 60 75 1001 165 35 -13.4000 132.200 990 13 90
2007362S13131 2008 93 SI WA HELEN 2008-01-05 03:00:00 TS -13.3212 132.866 main 0 0 P_____P_______ SH102008 -13.3422 132.720 TS 35 996 0 40 30 30 37 1001 165 35 -13.3002 133.013 991 15 88
2007362S13131 2008 93 SI WA HELEN 2008-01-05 06:00:00 TS -13.3000 133.650 992 bom main 0 0 O_____O_______ jtwc_sh SH102008 -13.4000 133.400 TD 30 1000 -1 1001 165 35 -13.2000 133.900 992 15 92
2007362S13131 2008 93 SI WA HELEN 2008-01-05 09:00:00 TS -13.3636 134.425 main 0 0 P_____P_______ SH102008 -13.4924 134.177 TD 30 1000 -1 1001 165 35 -13.2347 134.672 993 15 96
2007362S13131 2008 93 SP EA HELEN 2008-01-05 12:00:00 TS -13.4500 135.200 994 bom main 0 0 O_____O_______ jtwc_sh SH102008 -13.6000 135.000 TD 30 1000 -1 1001 165 35 -13.3000 135.400 994 15 95
2007362S13131 2008 93 SP EA HELEN 2008-01-05 15:00:00 TS -13.4958 135.931 main 0 0 P_____P_______ SH102008 -13.6996 135.785 TD 30 1000 -1 1001 160 37 -13.2920 136.078 993 15 94
2007362S13131 2008 93 SP EA HELEN 2008-01-05 18:00:00 TS -13.5500 136.700 992 bom main 22 11 O_____O_______ jtwc_sh SH102008 -13.8000 136.600 TC 30 1000 -1 1002 155 40 -13.3000 136.800 992 16 94
2007362S13131 2008 93 SP EA HELEN 2008-01-05 21:00:00 TS -13.6162 137.578 main 78 78 P_____P_______ SH102008 -13.8997 137.478 TC 30 1000 -1 1002 155 40 -13.3326 137.678 992 18 98
2007362S13131 2008 93 SP EA HELEN 2008-01-06 00:00:00 TS -13.7857 138.486 992 bom main 171 171 O_____O_______ jtwc_sh SH102008 -14.0000 138.400 TD 30 1000 -1 1002 155 40 -13.5000 138.600 992 18 103
2007362S13131 2008 93 SP EA HELEN 2008-01-06 03:00:00 TS -14.0337 139.425 main 227 133 P_____P_______ SH102008 -14.1078 139.402 TD 30 1000 -1 1002 155 40 -13.8853 139.469 992 18 104
2007362S13131 2008 93 SP EA HELEN 2008-01-06 06:00:00 TS -14.2400 140.300 992 bom main 133 68 O_____O_______ jtwc_sh SH102008 -14.2000 140.300 TD 30 1000 -1 1002 155 40 -14.4000 140.300 992 15 99
2007362S13131 2008 93 SP EA HELEN 2008-01-06 09:00:00 TS -14.2571 140.948 main 68 21 P_____________ SH102008 -14.2571 140.948 TD 27 1002 -1 1003 145 40 11 93
2007362S13131 2008 93 SP EA HELEN 2008-01-06 12:00:00 TS -14.3000 141.400 main 21 0 O_____________ jtwc_sh SH102008 -14.3000 141.400 TD 25 1004 -1 1005 135 40 8 96
2007362S13131 2008 93 SP EA HELEN 2008-01-06 15:00:00 TS -14.3423 141.738 main 0 0 P_____________ SH102008 -14.3423 141.738 TD 25 1004 -1 6 100
2007362S13131 2008 93 SP EA HELEN 2008-01-06 18:00:00 TS -14.4000 142.000 main 0 0 O_____________ jtwc_sh SH102008 -14.4000 142.000 TD 25 1004 -1 6 105
2007362S13131 2008 93 SP EA HELEN 2008-01-06 21:00:00 TS -14.4849 142.285 main 0 0 P_____________ SH102008 -14.4849 142.285 TD 22 1005 -1 6 109
2007362S13131 2008 93 SP EA HELEN 2008-01-07 00:00:00 TS -14.6000 142.600 main 0 0 O_____________ jtwc_sh SH102008 -14.6000 142.600 TD 20 1007 -1 7 111
2007362S13131 2008 93 SP EA HELEN 2008-01-07 03:00:00 TS -14.7427 142.980 main 0 0 P_____________ SH102008 -14.7427 142.980 TD 20 1007 -1 8 111
2007362S13131 2008 93 SP EA HELEN 2008-01-07 06:00:00 TS -14.9000 143.400 main 0 O_____________ jtwc_sh SH102008 -14.9000 143.400 TD 20 1007 -1 1008 135 40 9 111

About IBTrACS Database

This database is a web-friendly format of International Best Track Archive for Climate Stewardship (IBTrACS), a global best track data archive curated by NOAA dating back to 1842.

Updated: 2021-10-21